createdAt,value
2023-03-13T00:01:29.967Z,3.25
2023-03-13T00:03:57.396Z,2.90
2023-03-13T00:06:34.647Z,3.63
2023-03-13T00:09:04.314Z,4.22
2023-03-13T00:11:32.517Z,3.50
2023-03-13T00:14:02.541Z,3.28
2023-03-13T00:16:32.416Z,3.35
2023-03-13T00:18:59.880Z,3.35
2023-03-13T00:21:30.523Z,3.22
2023-03-13T00:24:00.381Z,3.95
2023-03-13T00:26:28.748Z,3.40
2023-03-13T00:28:56.018Z,3.33
2023-03-13T00:31:27.680Z,3.17
2023-03-13T00:34:00.708Z,3.45
2023-03-13T00:36:32.153Z,3.13
2023-03-13T00:39:00.299Z,3.15
2023-03-13T00:41:31.514Z,3.08
2023-03-13T00:43:59.668Z,3.63
2023-03-13T00:46:30.002Z,3.40
2023-03-13T00:48:57.554Z,3.10
2023-03-13T00:51:27.043Z,3.10
2023-03-13T00:53:56.226Z,4.15
2023-03-13T00:56:23.405Z,3.67
2023-03-13T00:58:51.266Z,3.95
2023-03-13T01:01:29.193Z,2.90
2023-03-13T01:04:01.112Z,3.53
2023-03-13T01:06:34.162Z,3.83
2023-03-13T01:09:03.791Z,3.42
2023-03-13T01:11:35.958Z,3.33
2023-03-13T01:14:08.548Z,3.42
2023-03-13T01:16:37.648Z,3.80
2023-03-13T01:19:12.926Z,3.42
2023-03-13T01:21:42.388Z,2.90
2023-03-13T01:24:09.879Z,2.95
2023-03-13T01:26:36.840Z,3.28
2023-03-13T01:29:04.386Z,3.67
2023-03-13T01:31:36.209Z,3.55
2023-03-13T01:34:06.724Z,3.40
2023-03-13T01:36:36.805Z,3.55
2023-03-13T01:39:05.115Z,3.28
2023-03-13T01:41:32.546Z,3.53
2023-03-13T01:44:00.157Z,3.22
2023-03-13T01:46:32.840Z,3.72
2023-03-13T01:49:27.565Z,3.10
2023-03-13T01:52:07.447Z,3.67
2023-03-13T01:54:48.247Z,3.13
2023-03-13T01:57:30.971Z,3.03
2023-03-13T02:00:20.035Z,3.60
2023-03-13T02:02:52.460Z,3.42
2023-03-13T02:05:25.464Z,3.85
2023-03-13T02:08:06.595Z,3.15
2023-03-13T02:10:41.862Z,3.30
2023-03-13T02:13:10.867Z,3.17
2023-03-13T02:15:41.178Z,2.97
2023-03-13T02:18:09.797Z,3.47
2023-03-13T02:20:40.075Z,3.17
2023-03-13T02:23:39.170Z,3.22
2023-03-13T02:26:07.007Z,2.83
2023-03-13T02:28:39.185Z,3.03
2023-03-13T02:31:10.851Z,2.85
2023-03-13T02:33:42.139Z,2.58
2023-03-13T02:36:14.787Z,3.20
2023-03-13T02:39:06.413Z,2.97
2023-03-13T02:41:35.550Z,3.03
2023-03-13T02:44:02.562Z,2.60
2023-03-13T02:46:30.093Z,3.10
2023-03-13T02:48:57.381Z,2.63
2023-03-13T02:51:35.030Z,2.75
2023-03-13T02:54:12.052Z,2.60
2023-03-13T02:56:42.254Z,2.42
2023-03-13T02:59:11.000Z,2.75
2023-03-13T03:01:41.068Z,2.55
2023-03-13T03:04:08.166Z,2.72
2023-03-13T03:06:35.191Z,2.42
2023-03-13T03:09:05.567Z,2.83
2023-03-13T03:11:35.487Z,3.03
2023-03-13T03:14:07.703Z,2.97
2023-03-13T03:16:40.227Z,3.13
2023-03-13T03:19:08.210Z,3.35
2023-03-13T03:21:35.439Z,3.03
2023-03-13T03:24:06.378Z,3.40
2023-03-13T03:26:33.789Z,3.58
2023-03-13T03:29:01.525Z,3.78
2023-03-13T03:31:30.263Z,3.83
2023-03-13T03:33:57.774Z,3.42
2023-03-13T03:36:25.185Z,3.55
2023-03-13T03:38:52.540Z,3.92
2023-03-13T03:41:24.232Z,3.90
2023-03-13T03:43:51.255Z,3.78
2023-03-13T03:46:22.231Z,3.90
2023-03-13T03:48:49.521Z,3.38
2023-03-13T03:51:16.510Z,3.47
2023-03-13T03:53:46.801Z,3.03
2023-03-13T03:56:14.279Z,3.45
2023-03-13T03:58:51.770Z,3.90
2023-03-13T04:01:24.852Z,3.50
2023-03-13T04:03:52.367Z,3.28
2023-03-13T04:06:19.633Z,3.90
2023-03-13T04:08:47.912Z,3.38
2023-03-13T04:11:17.884Z,3.83
2023-03-13T04:13:49.803Z,3.50
2023-03-13T04:16:17.067Z,3.72
2023-03-13T04:18:45.334Z,4.10
2023-03-13T04:21:12.430Z,3.90
2023-03-13T04:23:47.090Z,3.83
2023-03-13T04:26:15.151Z,3.78
2023-03-13T04:28:43.024Z,4.07
2023-03-13T04:31:13.326Z,4.30
2023-03-13T04:34:03.582Z,4.80
2023-03-13T04:36:42.612Z,4.57
2023-03-13T04:39:09.555Z,4.43
2023-03-13T04:42:03.559Z,4.68
2023-03-13T04:44:48.717Z,4.75
2023-03-13T04:47:33.379Z,5.05
2023-03-13T04:50:32.429Z,5.03
2023-03-13T04:53:17.788Z,4.78
2023-03-13T04:56:24.728Z,5.35
2023-03-13T04:59:18.422Z,4.90
2023-03-13T05:01:57.446Z,5.07
2023-03-13T05:04:53.790Z,4.95
2023-03-13T05:07:39.210Z,5.20
2023-03-13T05:10:13.293Z,4.97
2023-03-13T05:13:12.555Z,4.95
2023-03-13T05:15:52.283Z,4.55
2023-03-13T05:18:39.284Z,5.18
2023-03-13T05:21:24.786Z,4.97
2023-03-13T05:24:00.296Z,4.80
2023-03-13T05:26:39.318Z,4.70
2023-03-13T05:29:24.999Z,4.80
2023-03-13T05:32:12.166Z,4.40
2023-03-13T05:34:55.834Z,4.70
2023-03-13T05:37:58.217Z,4.88
2023-03-13T05:40:32.563Z,3.90
2023-03-13T05:43:22.696Z,4.38
2023-03-13T05:46:08.226Z,4.00
2023-03-13T05:48:52.813Z,3.50
2023-03-13T05:51:52.141Z,3.53
2023-03-13T05:54:38.454Z,3.70
2023-03-13T05:57:24.190Z,3.45
2023-03-13T06:00:10.831Z,3.17
2023-03-13T06:02:45.002Z,2.58
2023-03-13T06:05:17.262Z,2.83
2023-03-13T06:07:45.569Z,2.75
2023-03-13T06:10:12.871Z,2.75
2023-03-13T06:12:39.881Z,2.70
2023-03-13T06:15:12.205Z,2.35
2023-03-13T06:17:59.652Z,2.30
2023-03-13T06:20:26.600Z,2.83
2023-03-13T06:22:53.533Z,2.47
2023-03-13T06:25:20.521Z,2.25
2023-03-13T06:27:47.350Z,2.08
2023-03-13T06:30:14.457Z,2.25
2023-03-13T06:32:41.553Z,2.08
2023-03-13T06:35:09.178Z,2.30
2023-03-13T06:37:36.229Z,2.20
2023-03-13T06:40:04.330Z,2.20
2023-03-13T06:42:31.384Z,2.47
2023-03-13T06:44:58.359Z,2.45
2023-03-13T06:47:25.299Z,2.47
2023-03-13T06:49:52.313Z,2.22
2023-03-13T06:52:20.292Z,1.90
2023-03-13T06:54:47.548Z,2.33
2023-03-13T06:57:14.492Z,2.13
2023-03-13T06:59:41.462Z,2.38
2023-03-13T07:02:12.269Z,2.15
2023-03-13T07:04:44.232Z,2.00
2023-03-13T07:07:25.603Z,2.25
2023-03-13T07:09:52.887Z,1.83
2023-03-13T07:12:19.812Z,2.40
2023-03-13T07:14:46.662Z,1.90
2023-03-13T07:17:13.615Z,1.80
2023-03-13T07:19:40.516Z,2.78
2023-03-13T07:22:07.410Z,2.10
2023-03-13T07:24:34.492Z,1.67
2023-03-13T07:27:07.089Z,2.03
2023-03-13T07:29:34.756Z,1.92
2023-03-13T07:32:01.903Z,2.22
2023-03-13T07:34:29.072Z,1.75
2023-03-13T07:36:56.093Z,2.00
2023-03-13T07:39:23.208Z,2.22
2023-03-13T07:41:50.051Z,1.70
2023-03-13T07:44:18.391Z,2.05
2023-03-13T07:46:48.405Z,2.05
2023-03-13T07:49:15.715Z,2.10
2023-03-13T07:51:44.372Z,2.35
2023-03-13T07:54:11.932Z,1.65
2023-03-13T07:56:39.023Z,1.77
2023-03-13T07:59:06.973Z,1.63
2023-03-13T08:01:34.126Z,2.40
2023-03-13T08:04:01.614Z,1.80
2023-03-13T08:06:33.980Z,1.90
2023-03-13T08:09:01.839Z,1.75
2023-03-13T08:11:29.385Z,1.80
2023-03-13T08:13:57.688Z,2.50
2023-03-13T08:16:31.566Z,1.55
2023-03-13T08:18:59.597Z,2.10
2023-03-13T08:21:31.290Z,1.98
2023-03-13T08:24:06.935Z,1.90
2023-03-13T08:26:38.024Z,2.00
2023-03-13T08:29:10.128Z,2.00
2023-03-13T08:31:47.905Z,2.42
2023-03-13T08:34:17.033Z,1.80
2023-03-13T08:36:44.618Z,1.88
2023-03-13T08:39:15.469Z,2.05
2023-03-13T08:41:43.537Z,1.88
2023-03-13T08:44:16.899Z,1.58
2023-03-13T08:46:44.858Z,1.73
2023-03-13T08:49:13.243Z,1.60
2023-03-13T08:51:40.808Z,1.65
2023-03-13T08:54:07.874Z,1.70
2023-03-13T08:56:35.095Z,1.70
2023-03-13T08:59:04.727Z,1.70
2023-03-13T09:01:35.256Z,1.70
2023-03-13T09:04:05.088Z,1.75
2023-03-13T09:06:34.246Z,1.60
2023-03-13T09:09:02.269Z,1.30
2023-03-13T09:11:30.072Z,1.42
2023-03-13T09:13:59.384Z,1.40
2023-03-13T09:16:30.906Z,1.63
2023-03-13T09:18:59.492Z,1.48
2023-03-13T09:21:33.115Z,1.30
2023-03-13T09:24:01.311Z,1.08
2023-03-13T09:26:29.327Z,1.20
2023-03-13T09:28:57.498Z,1.35
2023-03-13T09:31:29.820Z,1.60
2023-03-13T09:33:57.497Z,1.30
2023-03-13T09:36:25.563Z,1.95
2023-03-13T09:38:56.024Z,1.20
2023-03-13T09:41:38.637Z,1.30
2023-03-13T09:44:19.872Z,1.38
2023-03-13T09:47:06.062Z,1.27
2023-03-13T09:50:01.176Z,1.27
2023-03-13T09:52:41.014Z,1.65
2023-03-13T09:55:21.422Z,1.30
2023-03-13T09:57:56.021Z,1.30
2023-03-13T10:00:40.284Z,1.30
2023-03-13T10:03:29.465Z,1.60
2023-03-13T10:06:05.862Z,1.35
2023-03-13T10:08:35.552Z,1.00
2023-03-13T10:11:35.358Z,1.90
2023-03-13T10:14:26.747Z,1.20
2023-03-13T10:17:32.617Z,1.00
2023-03-13T10:20:22.452Z,1.20
2023-03-13T10:23:15.901Z,1.25
2023-03-13T10:25:42.903Z,1.20
2023-03-13T10:28:17.062Z,1.00
2023-03-13T10:33:25.922Z,0.98
2023-03-13T10:36:14.157Z,0.80
2023-03-13T10:38:53.940Z,1.20
2023-03-13T10:41:31.893Z,0.88
2023-03-13T10:44:04.657Z,1.23
2023-03-13T10:46:35.918Z,1.00
2023-03-13T10:49:24.351Z,0.90
2023-03-13T10:51:59.622Z,0.90
2023-03-13T10:54:37.949Z,0.80
2023-03-13T10:57:31.216Z,0.70
2023-03-13T10:59:59.795Z,0.85
2023-03-13T11:02:39.321Z,0.90
2023-03-13T11:05:30.563Z,0.85
2023-03-13T11:07:57.689Z,1.20
2023-03-13T11:10:30.060Z,1.50
2023-03-13T11:12:59.284Z,0.98
2023-03-13T11:15:39.477Z,0.90
2023-03-13T11:18:29.764Z,0.68
2023-03-13T11:21:08.708Z,0.80
2023-03-13T11:23:53.694Z,0.60
2023-03-13T11:26:39.007Z,0.60
2023-03-13T11:29:26.434Z,0.80
2023-03-13T11:32:16.453Z,0.90
2023-03-13T11:34:57.455Z,0.75
2023-03-13T11:37:31.246Z,1.38
2023-03-13T11:40:26.882Z,0.70
2023-03-13T11:43:25.139Z,0.60
2023-03-13T11:46:16.942Z,0.80
2023-03-13T11:49:06.882Z,0.77
2023-03-13T11:52:24.790Z,0.95
2023-03-13T11:55:29.815Z,0.80
2023-03-13T12:00:48.106Z,0.60
2023-03-13T12:03:32.875Z,1.00
2023-03-13T12:06:03.694Z,1.27
2023-03-13T12:08:42.756Z,0.80
2023-03-13T12:11:29.050Z,1.10
2023-03-13T12:14:11.627Z,0.88
2023-03-13T12:16:51.494Z,1.38
2023-03-13T12:19:30.780Z,1.10
2023-03-13T12:22:09.809Z,0.98
2023-03-13T12:24:50.214Z,1.20
2023-03-13T12:27:34.287Z,0.90
2023-03-13T12:30:27.576Z,0.85
2023-03-13T12:33:26.632Z,0.82
2023-03-13T12:36:07.929Z,1.27
2023-03-13T12:38:47.810Z,1.50
2023-03-13T12:41:43.155Z,0.73
2023-03-13T12:44:20.852Z,0.80
2023-03-13T12:47:07.238Z,0.65
2023-03-13T12:50:01.453Z,0.90
2023-03-13T12:53:19.057Z,0.90
2023-03-13T12:56:08.320Z,0.80
2023-03-13T12:58:49.379Z,0.60
2023-03-13T13:01:41.669Z,0.90
2023-03-13T13:04:17.572Z,0.88
2023-03-13T13:07:07.038Z,0.80
2023-03-13T13:09:39.760Z,1.20
2023-03-13T13:12:16.504Z,1.00
2023-03-13T13:14:49.687Z,1.50
2023-03-13T13:17:28.236Z,0.80
2023-03-13T13:19:57.260Z,0.70
2023-03-13T13:22:39.432Z,1.10
2023-03-13T13:25:35.702Z,1.27
2023-03-13T13:28:27.431Z,0.90
2023-03-13T13:30:56.718Z,1.10
2023-03-13T13:33:30.978Z,2.47
2023-03-13T13:38:41.077Z,1.13
2023-03-13T13:41:11.024Z,1.17
2023-03-13T13:43:47.799Z,1.10
2023-03-13T13:46:30.257Z,0.95
2023-03-13T13:49:15.617Z,1.45
2023-03-13T13:52:04.284Z,1.08
2023-03-13T13:54:47.422Z,0.82
2023-03-13T13:57:23.893Z,0.80
2023-03-13T14:00:15.718Z,1.05
2023-03-13T14:02:55.776Z,0.75
2023-03-13T14:05:31.910Z,1.00
2023-03-13T14:08:14.078Z,1.15
2023-03-13T14:10:46.925Z,1.23
2023-03-13T14:13:20.686Z,2.50
2023-03-13T14:15:57.229Z,0.90
2023-03-13T14:18:30.491Z,1.42
2023-03-13T14:21:13.826Z,1.40
2023-03-13T14:23:46.652Z,0.90
2023-03-13T14:26:27.478Z,1.40
2023-03-13T14:29:02.844Z,0.90
2023-03-13T14:31:37.895Z,0.88
2023-03-13T14:34:09.062Z,0.80
2023-03-13T14:37:07.365Z,0.98
2023-03-13T14:39:46.498Z,0.70
2023-03-13T14:42:18.277Z,1.40
2023-03-13T14:44:50.050Z,1.20
2023-03-13T14:47:27.421Z,0.90
2023-03-13T14:50:14.836Z,1.17
2023-03-13T14:52:49.881Z,0.80
2023-03-13T14:55:23.001Z,0.73
2023-03-13T14:58:23.719Z,0.95
2023-03-13T15:00:51.210Z,2.20
2023-03-13T15:03:20.085Z,0.80
2023-03-13T15:06:09.638Z,0.82
2023-03-13T15:08:43.368Z,0.70
2023-03-13T15:11:30.478Z,0.73
2023-03-13T15:13:58.229Z,0.85
2023-03-13T15:16:27.965Z,0.70
2023-03-13T15:18:56.974Z,1.45
2023-03-13T15:21:32.954Z,0.80
2023-03-13T15:24:11.269Z,0.60
2023-03-13T15:26:38.255Z,0.82
2023-03-13T15:29:05.242Z,1.00
2023-03-13T15:31:32.538Z,0.90
2023-03-13T15:34:01.794Z,0.75
2023-03-13T15:36:31.660Z,1.27
2023-03-13T15:38:58.719Z,0.85
2023-03-13T15:41:25.863Z,1.35
2023-03-13T15:43:52.953Z,0.73
2023-03-13T15:46:20.606Z,0.70
2023-03-13T15:48:48.371Z,1.10
2023-03-13T15:51:17.245Z,0.50
2023-03-13T15:53:46.264Z,0.95
2023-03-13T15:56:20.454Z,0.80
2023-03-13T15:58:49.092Z,0.77
2023-03-13T16:01:18.101Z,0.70
2023-03-13T16:03:45.296Z,1.13
2023-03-13T16:06:20.725Z,0.75
2023-03-13T16:08:47.925Z,0.80
2023-03-13T16:11:17.331Z,0.80
2023-03-13T16:13:44.394Z,0.70
2023-03-13T16:16:20.379Z,0.77
2023-03-13T16:18:49.642Z,0.68
2023-03-13T16:21:29.835Z,0.50
2023-03-13T16:23:57.624Z,1.02
2023-03-13T16:26:29.749Z,1.42
2023-03-13T16:28:58.136Z,0.85
2023-03-13T16:31:32.094Z,1.00
2023-03-13T16:36:31.732Z,0.82
2023-03-13T16:39:01.995Z,1.15
2023-03-13T16:41:30.412Z,0.90
2023-03-13T16:43:58.672Z,0.63
2023-03-13T16:46:36.239Z,1.00
2023-03-13T16:49:04.122Z,1.10
2023-03-13T16:51:32.443Z,0.90
2023-03-13T16:54:03.692Z,1.30
2023-03-13T16:56:37.860Z,0.80
2023-03-13T17:01:36.444Z,1.15
2023-03-13T17:04:03.584Z,1.27
2023-03-13T17:06:41.376Z,0.82
2023-03-13T17:09:16.692Z,1.30
2023-03-13T17:11:44.832Z,1.23
2023-03-13T17:14:13.549Z,1.10
2023-03-13T17:16:44.672Z,1.10
2023-03-13T17:19:16.858Z,0.98
2023-03-13T17:21:44.370Z,0.90
2023-03-13T17:24:11.494Z,1.40
2023-03-13T17:26:40.429Z,1.20
2023-03-13T17:29:14.318Z,1.00
2023-03-13T17:31:41.687Z,1.33
2023-03-13T17:34:09.778Z,1.13
2023-03-13T17:36:37.905Z,1.02
2023-03-13T17:39:08.795Z,1.00
2023-03-13T17:41:37.084Z,1.15
2023-03-13T17:44:04.383Z,1.40
2023-03-13T17:46:43.394Z,0.88
2023-03-13T17:49:17.529Z,0.90
2023-03-13T17:51:46.295Z,1.00
2023-03-13T17:54:15.738Z,1.00
2023-03-13T17:56:43.972Z,1.10
2023-03-13T17:59:18.283Z,1.08
2023-03-13T18:01:46.179Z,1.50
2023-03-13T18:04:13.670Z,1.42
2023-03-13T18:06:45.988Z,1.30
2023-03-13T18:09:21.503Z,1.20
2023-03-13T18:11:49.489Z,1.42
2023-03-13T18:14:16.834Z,1.10
2023-03-13T18:16:47.921Z,1.10
2023-03-13T18:19:22.829Z,1.55
2023-03-13T18:21:55.295Z,1.48
2023-03-13T18:24:23.101Z,1.65
2023-03-13T18:26:50.918Z,1.17
2023-03-13T18:29:26.975Z,1.23
2023-03-13T18:31:58.631Z,1.42
2023-03-13T18:34:27.044Z,0.95
2023-03-13T18:36:55.199Z,1.38
2023-03-13T18:39:22.356Z,1.15
2023-03-13T18:41:52.283Z,1.27
2023-03-13T18:44:20.923Z,1.60
2023-03-13T18:46:48.151Z,2.67
2023-03-13T18:49:20.487Z,1.48
2023-03-13T18:51:49.822Z,1.40
2023-03-13T18:54:17.628Z,1.50
2023-03-13T18:56:47.319Z,1.42
2023-03-13T18:59:20.865Z,1.23
2023-03-13T19:01:49.029Z,1.60
2023-03-13T19:04:17.350Z,1.38
2023-03-13T19:06:45.954Z,1.20
2023-03-13T19:09:48.744Z,1.50
2023-03-13T19:12:06.746Z,1.35
2023-03-13T19:14:33.949Z,1.48
2023-03-13T19:17:01.086Z,1.60
2023-03-13T19:19:28.745Z,1.60
2023-03-13T19:21:56.354Z,1.48
2023-03-13T19:24:26.655Z,1.40
2023-03-13T19:26:58.975Z,1.50
2023-03-13T19:29:28.443Z,1.40
2023-03-13T19:31:55.928Z,1.23
2023-03-13T19:34:23.366Z,1.50
2023-03-13T19:36:53.256Z,1.58
2023-03-13T19:39:25.170Z,1.80
2023-03-13T19:41:54.109Z,1.70
2023-03-13T19:44:22.335Z,1.70
2023-03-13T19:46:49.633Z,1.63
2023-03-13T19:49:19.873Z,1.67
2023-03-13T19:51:47.911Z,1.40
2023-03-13T19:54:15.626Z,1.80
2023-03-13T19:56:45.903Z,1.60
2023-03-13T19:59:19.883Z,1.75
2023-03-13T20:01:47.197Z,1.40
2023-03-13T20:04:15.551Z,1.80
2023-03-13T20:06:43.992Z,1.63
2023-03-13T20:09:17.380Z,1.88
2023-03-13T20:11:45.230Z,1.85
2023-03-13T20:14:12.542Z,1.83
2023-03-13T20:16:39.856Z,1.88
2023-03-13T20:19:07.035Z,1.80
2023-03-13T20:21:37.626Z,1.83
2023-03-13T20:24:05.061Z,1.88
2023-03-13T20:26:32.131Z,1.98
2023-03-13T20:28:59.142Z,2.00
2023-03-13T20:31:30.219Z,1.95
2023-03-13T20:33:58.627Z,2.25
2023-03-13T20:36:26.812Z,2.10
2023-03-13T20:38:53.889Z,1.88
2023-03-13T20:41:24.800Z,1.80
2023-03-13T20:43:52.935Z,1.77
2023-03-13T20:46:21.227Z,2.08
2023-03-13T20:48:49.177Z,2.00
2023-03-13T20:51:16.900Z,2.15
2023-03-13T20:53:44.284Z,1.80
2023-03-13T20:56:11.850Z,2.03
2023-03-13T20:58:39.299Z,1.88
2023-03-13T21:01:08.178Z,1.83
2023-03-13T21:03:36.365Z,2.30
2023-03-13T21:06:15.864Z,2.10
2023-03-13T21:08:44.126Z,1.98
2023-03-13T21:11:20.156Z,2.67
2023-03-13T21:13:48.427Z,2.00
2023-03-13T21:16:16.484Z,2.20
2023-03-13T21:18:43.683Z,2.40
2023-03-13T21:21:17.091Z,2.72
2023-03-13T21:23:45.717Z,2.20
2023-03-13T21:26:14.368Z,2.60
2023-03-13T21:28:41.358Z,1.92
2023-03-13T21:31:16.058Z,1.73
2023-03-13T21:33:44.886Z,2.00
2023-03-13T21:36:14.995Z,1.77
2023-03-13T21:38:43.022Z,2.00
2023-03-13T21:41:14.142Z,2.25
2023-03-13T21:43:42.372Z,2.00
2023-03-13T21:46:16.214Z,1.92
2023-03-13T21:51:13.351Z,2.65
2023-03-13T21:53:42.085Z,2.08
2023-03-13T21:56:15.049Z,2.05
2023-03-13T21:58:44.058Z,2.72
2023-03-13T22:01:12.262Z,1.90
2023-03-13T22:03:39.683Z,2.10
2023-03-13T22:06:15.552Z,2.00
2023-03-13T22:08:42.989Z,1.90
2023-03-13T22:11:10.068Z,2.00
2023-03-13T22:13:37.166Z,2.05
2023-03-13T22:16:04.602Z,2.00
2023-03-13T22:18:32.094Z,2.00
2023-03-13T22:21:00.338Z,1.80
2023-03-13T22:23:27.572Z,1.70
2023-03-13T22:25:57.624Z,1.75
2023-03-13T22:28:25.546Z,1.98
2023-03-13T22:30:52.821Z,2.22
2023-03-13T22:33:20.184Z,2.17
2023-03-13T22:35:52.522Z,2.10
2023-03-13T22:38:21.102Z,1.92
2023-03-13T22:40:56.265Z,2.10
2023-03-13T22:43:23.282Z,1.90
2023-03-13T22:45:50.604Z,2.60
2023-03-13T22:48:17.721Z,1.98
2023-03-13T22:50:44.729Z,1.83
2023-03-13T22:53:12.118Z,2.28
2023-03-13T22:55:39.084Z,1.90
2023-03-13T22:58:06.089Z,1.90
2023-03-13T23:00:33.105Z,1.92
2023-03-13T23:03:00.100Z,2.00
2023-03-13T23:05:27.059Z,2.10
2023-03-13T23:07:54.058Z,1.73
2023-03-13T23:10:21.173Z,2.00
2023-03-13T23:12:48.193Z,2.20
2023-03-13T23:15:15.188Z,1.58
2023-03-13T23:17:42.163Z,1.83
2023-03-13T23:20:13.359Z,2.15
2023-03-13T23:22:46.517Z,2.30
2023-03-13T23:25:14.304Z,1.98
2023-03-13T23:27:42.400Z,1.67
2023-03-13T23:30:14.343Z,1.80
2023-03-13T23:32:45.521Z,1.80
2023-03-13T23:35:13.348Z,1.65
2023-03-13T23:37:40.370Z,1.95
2023-03-13T23:40:10.426Z,1.80
2023-03-13T23:42:37.672Z,1.83
2023-03-13T23:45:06.442Z,1.75
2023-03-13T23:47:33.921Z,1.98
2023-03-13T23:50:00.938Z,1.63
2023-03-13T23:52:27.930Z,1.50
2023-03-13T23:54:55.171Z,2.00
2023-03-13T23:57:22.522Z,1.90
2023-03-13T23:59:49.969Z,1.90
